European Causeway — C6RG7 — position and weather

sailwx.info

Track history (hours):
 
Tides and Currents Weather Stations Pressure Air Temp Water Temp Dewpoint Dewpoint Depression Visibility Wind Speed Wind Dir Waves Ship Positions

European Causeway

Operator: P & O Irish Sea

Last reported at 2017-Apr-30 14:31 UTC. Time now 2017-Apr-30 14:53 UTC.
Position N 54°58' W 005°01'.

Length 165 m; draft 5.5 m.

Type: Ship (hazmat cat A). MMSI: 311027000.

Date/timePositionNaut miles runAvg speedWind from/ knotsBaromVisibWave heightAir tempDewpointWater temp
2017-Apr-30 14:31N 54°58' W 005°01'6 5.5
2017-Apr-30 13:30N 55°02' W 005°08'816.8
2017-Apr-30 13:01N 54°58' W 005°21'816.8
2017-Apr-30 12:31N 54°55' W 005°34'816.3
2017-Apr-30 12:00N 54°51' W 005°48'1 1.0
2017-Apr-30 11:30N 54°51' W 005°48'0 0.0
2017-Apr-30 11:00N 54°51' W 005°48'0 0.0
2017-Apr-30 10:30N 54°51' W 005°48'0 0.0
2017-Apr-30 10:00N 54°51' W 005°48'0 0.0
2017-Apr-30 09:30N 54°51' W 005°48'0 0.0
2017-Apr-30 09:00N 54°51' W 005°48'0 0.0
2017-Apr-30 08:30N 54°51' W 005°48'4 7.2
2017-Apr-30 08:00N 54°53' W 005°43'917.8
2017-Apr-30 07:31N 54°57' W 005°29'918.1
2017-Apr-30 07:00N 55°02' W 005°16'815.8
2017-Apr-30 06:30N 54°59' W 005°03'2 3.0
2017-Apr-30 06:00N 54°58' W 005°01'0 0.0
2017-Apr-30 05:30N 54°58' W 005°01'0 0.0
2017-Apr-30 05:00N 54°58' W 005°01'0 0.0
2017-Apr-30 04:30N 54°58' W 005°01'0 0.0
2017-Apr-30 04:00N 54°58' W 005°01'0 0.0
2017-Apr-30 03:30N 54°58' W 005°01'0 0.0
2017-Apr-30 03:00N 54°58' W 005°01'0 0.0
2017-Apr-30 02:30N 54°58' W 005°01'0 0.0
2017-Apr-30 02:00N 54°58' W 005°01'0 0.0
2017-Apr-30 01:30N 54°58' W 005°01'0 0.0
2017-Apr-30 01:00N 54°58' W 005°01'0 0.0
2017-Apr-30 00:30N 54°58' W 005°01'0 0.0
2017-Apr-30 00:00N 54°58' W 005°01'0 0.0
2017-Apr-29 23:30N 54°58' W 005°01'0 0.0
2017-Apr-29 23:00N 54°58' W 005°01'0 0.0
2017-Apr-29 22:30N 54°58' W 005°01'0 0.0
2017-Apr-29 22:00N 54°58' W 005°01'0 0.0
2017-Apr-29 21:30N 54°58' W 005°01'0 0.1
2017-Apr-29 21:00N 54°58' W 005°01'510.6
2017-Apr-29 20:30N 55°01' W 005°07'816.7
2017-Apr-29 20:00N 54°58' W 005°21'917.9
2017-Apr-29 19:31N 54°54' W 005°35'816.3
2017-Apr-29 19:01N 54°51' W 005°48'0 0.3
2017-Apr-29 18:31N 54°51' W 005°48'0 0.0
2017-Apr-29 18:00N 54°51' W 005°48'0 0.0
2017-Apr-29 17:31N 54°51' W 005°48'4 8.1
2017-Apr-29 17:01N 54°53' W 005°42'918.1
2017-Apr-29 16:30N 54°58' W 005°28'917.7
2017-Apr-29 16:01N 55°01' W 005°14'815.1
2017-Apr-29 15:31N 54°58' W 005°02'1 1.6
2017-Apr-29 14:57N 54°58' W 005°01'0 0.0
2017-Apr-29 14:31N 54°58' W 005°01'1212.0
2017-Apr-29 13:31N 54°57' W 005°22'1019.9
2017-Apr-29 13:01N 54°54' W 005°38'612.7
2017-Apr-29 12:30N 54°51' W 005°48'0 0.0
2017-Apr-29 12:00N 54°51' W 005°48'0 0.0
2017-Apr-29 11:30N 54°51' W 005°48'510.3
2017-Apr-29 11:00N 54°54' W 005°40'917.4
2017-Apr-29 10:30N 54°57' W 005°27'918.0
2017-Apr-29 10:00N 55°01' W 005°12'713.4
2017-Apr-29 09:30N 54°58' W 005°02'1 1.3
2017-Apr-29 09:00N 54°58' W 005°01'0 0.0
2017-Apr-29 08:30N 54°58' W 005°01'5 9.7
2017-Apr-29 07:58N 55°02' W 005°07'817.5
2017-Apr-29 07:31N 54°58' W 005°20'919.0
2017-Apr-29 07:01N 54°54' W 005°35'816.1
2017-Apr-29 06:30N 54°51' W 005°48'0 0.2
2017-Apr-29 06:00N 54°51' W 005°48'0 0.0
2017-Apr-29 05:30N 54°51' W 005°48'0 0.0
2017-Apr-29 05:00N 54°51' W 005°48'611.1
2017-Apr-29 04:30N 54°54' W 005°40'1020.3
2017-Apr-29 04:00N 54°58' W 005°24'1019.0
2017-Apr-29 03:30N 55°01' W 005°08'611.2
2017-Apr-29 03:00N 54°58' W 005°01'0 0.0
2017-Apr-29 02:23N 54°58' W 005°01'0 0.0
2017-Apr-29 01:56N 54°58' W 005°01'0 0.0
2017-Apr-29 01:29N 54°58' W 005°01'0 0.0
2017-Apr-29 00:59N 54°58' W 005°01'510.4
2017-Apr-29 00:28N 55°01' W 005°08'817.5
2017-Apr-29 00:00N 54°57' W 005°20'918.3
2017-Apr-28 23:30N 54°54' W 005°35'816.3
2017-Apr-28 23:00N 54°51' W 005°48'0 0.2
2017-Apr-28 22:29N 54°51' W 005°48'0 0.0
2017-Apr-28 21:59N 54°51' W 005°48'0 0.0
2017-Apr-28 21:29N 54°51' W 005°48'0 0.0
2017-Apr-28 21:00N 54°51' W 005°48'611.3
2017-Apr-28 20:30N 54°54' W 005°40'816.9
2017-Apr-28 20:00N 54°58' W 005°26'917.7
2017-Apr-28 19:30N 55°01' W 005°12'713.1
2017-Apr-28 19:00N 54°58' W 005°02'1 1.5
2017-Apr-28 18:25N 54°58' W 005°01'0 0.0
2017-Apr-28 17:58N 54°58' W 005°01'0 0.0
2017-Apr-28 17:30N 54°58' W 005°01'5 9.8
2017-Apr-28 17:00N 55°02' W 005°06'918.1
2017-Apr-28 16:30N 54°58' W 005°21'918.1
2017-Apr-28 16:00N 54°54' W 005°35'815.9
2017-Apr-28 15:31N 54°51' W 005°48'0 0.4
2017-Apr-28 15:01N 54°51' W 005°48'7 6.9
2017-Apr-28 14:01N 54°55' W 005°38'1020.9
2017-Apr-28 13:30N 54°59' W 005°21'1016.4
2017-Apr-28 12:53N 54°59' W 005°03'2 5.5
2017-Apr-28 12:28N 54°58' W 005°01'0 0.0
2017-Apr-28 11:58N 54°58' W 005°01'0 0.0
2017-Apr-28 11:29N 54°58' W 005°01'510.0
2017-Apr-28 10:59N 55°02' W 005°07'919.4
2017-Apr-28 10:30N 54°58' W 005°21'1020.2
2017-Apr-28 10:00N 54°54' W 005°37'713.3
2017-Apr-28 09:30N 54°51' W 005°48'0 0.0
2017-Apr-28 09:00N 54°51' W 005°48'0 0.1
2017-Apr-28 08:30N 54°51' W 005°48'613.0
2017-Apr-28 08:01N 54°54' W 005°38'917.7
2017-Apr-28 07:31N 54°58' W 005°24'918.7
2017-Apr-28 07:00N 55°02' W 005°09'611.5
2017-Apr-28 06:31N 54°58' W 005°02'1 0.9
2017-Apr-28 05:58N 54°58' W 005°01'0 0.0
2017-Apr-28 05:28N 54°58' W 005°01'0 0.3
2017-Apr-28 05:00N 54°58' W 005°01'611.1
2017-Apr-28 04:30N 55°01' W 005°08'918.3
2017-Apr-28 04:00N 54°58' W 005°23'917.9
2017-Apr-28 03:31N 54°54' W 005°37'713.8
2017-Apr-28 03:01N 54°51' W 005°48'0 0.1
2017-Apr-28 02:29N 54°51' W 005°48'0 0.0
2017-Apr-28 01:59N 54°51' W 005°48'0 0.0
2017-Apr-28 01:29N 54°51' W 005°48'0 0.0
2017-Apr-28 00:59N 54°51' W 005°48'511.2
2017-Apr-28 00:31N 54°54' W 005°40'918.8
2017-Apr-28 00:01N 54°58' W 005°25'918.1
2017-Apr-27 23:31N 55°01' W 005°11'712.8
2017-Apr-27 22:59N 54°58' W 005°01'0 0.0
2017-Apr-27 21:01N 54°58' W 005°01'0 0.1
2017-Apr-27 20:59N 54°58' W 005°01'5 9.8
2017-Apr-27 20:28N 55°02' W 005°07'817.9
2017-Apr-27 20:01N 54°58' W 005°20'1020.3
2017-Apr-27 19:30N 54°54' W 005°36'715.0
2017-Apr-27 19:00N 54°51' W 005°48'0 0.0
2017-Apr-27 18:31N 54°51' W 005°48'0 0.0
2017-Apr-27 18:01N 54°51' W 005°48'0 0.0
2017-Apr-27 17:31N 54°51' W 005°48'5 9.2
2017-Apr-27 17:00N 54°53' W 005°41'1020.0
2017-Apr-27 16:30N 54°58' W 005°26'1019.5
2017-Apr-27 16:00N 55°01' W 005°10'612.7
2017-Apr-27 15:30N 54°58' W 005°01'0 0.0
2017-Apr-27 15:00N 54°58' W 005°01'5 5.2
2017-Apr-27 14:00N 55°02' W 005°07'1020.6
2017-Apr-27 13:30N 54°57' W 005°23'919.0
2017-Apr-27 13:00N 54°54' W 005°39'612.1
2017-Apr-27 12:31N 54°51' W 005°48'0 0.0
2017-Apr-27 12:00N 54°51' W 005°48'0 0.0
2017-Apr-27 11:30N 54°51' W 005°48'510.9
2017-Apr-27 11:00N 54°54' W 005°40'917.7
2017-Apr-27 10:30N 54°57' W 005°26'918.1
2017-Apr-27 10:00N 55°01' W 005°12'713.2
2017-Apr-27 09:30N 54°58' W 005°02'0 0.8
2017-Apr-27 09:00N 54°58' W 005°01'0 0.0
2017-Apr-27 08:31N 54°58' W 005°01'5 9.7
2017-Apr-27 07:58N 55°02' W 005°07'816.6
2017-Apr-27 07:30N 54°58' W 005°19'918.6
2017-Apr-27 07:00N 54°55' W 005°34'917.4
2017-Apr-27 06:31N 54°51' W 005°48'0 0.4
2017-Apr-27 06:00N 54°51' W 005°48'0 0.0
2017-Apr-27 05:30N 54°51' W 005°48'0 0.0
2017-Apr-27 05:00N 54°51' W 005°48'611.7
2017-Apr-27 04:30N 54°54' W 005°39'1019.9
2017-Apr-27 04:00N 54°58' W 005°24'1019.0
2017-Apr-27 03:30N 55°02' W 005°08'611.3
2017-Apr-27 03:01N 54°58' W 005°01'0 0.0
2017-Apr-27 02:27N 54°58' W 005°01'0 0.0
2017-Apr-27 01:59N 54°58' W 005°01'0 0.0
2017-Apr-27 01:26N 54°58' W 005°01'0 0.2
2017-Apr-27 01:00N 54°58' W 005°01'612.6
2017-Apr-27 00:30N 55°01' W 005°10'1020.4
2017-Apr-27 00:00N 54°56' W 005°26'1019.4
2017-Apr-26 23:30N 54°53' W 005°41'4 8.4
2017-Apr-26 23:00N 54°51' W 005°48'0 0.0
2017-Apr-26 22:26N 54°51' W 005°48'0 0.0
2017-Apr-26 21:56N 54°51' W 005°48'0 0.0
2017-Apr-26 21:29N 54°51' W 005°48'0 0.0
2017-Apr-26 21:00N 54°51' W 005°48'611.1
2017-Apr-26 20:30N 54°54' W 005°40'917.6
2017-Apr-26 20:00N 54°58' W 005°26'918.9
2017-Apr-26 19:30N 55°01' W 005°11'713.6
2017-Apr-26 19:00N 54°58' W 005°01'0 0.1
2017-Apr-26 18:30N 54°58' W 005°01'0 0.0
2017-Apr-26 18:00N 54°58' W 005°01'0 0.2
2017-Apr-26 17:30N 54°58' W 005°01'511.0
2017-Apr-26 17:01N 55°01' W 005°08'917.4
2017-Apr-26 16:31N 54°58' W 005°22'918.1
2017-Apr-26 16:01N 54°54' W 005°36'712.5
2017-Apr-26 15:25N 54°51' W 005°48'0 0.0
2017-Apr-26 15:01N 54°51' W 005°48'3 2.7
2017-Apr-26 14:00N 54°53' W 005°44'918.9
2017-Apr-26 13:30N 54°57' W 005°30'918.0
2017-Apr-26 13:00N 55°00' W 005°15'714.2
2017-Apr-26 12:30N 54°59' W 005°03'2 3.8
2017-Apr-26 12:00N 54°58' W 005°01'0 0.0
2017-Apr-26 11:30N 54°58' W 005°01'510.1
2017-Apr-26 11:00N 55°01' W 005°07'918.2
2017-Apr-26 10:30N 54°58' W 005°21'917.9
2017-Apr-26 10:00N 54°54' W 005°35'815.8
2017-Apr-26 09:30N 54°51' W 005°48'0 0.1
2017-Apr-26 08:57N 54°51' W 005°48'0 0.0
2017-Apr-26 08:30N 54°51' W 005°48'5 9.6
2017-Apr-26 08:01N 54°53' W 005°41'918.2
2017-Apr-26 07:30N 54°57' W 005°26'1121.0
2017-Apr-26 07:00N 55°01' W 005°10'612.1
2017-Apr-26 06:30N 54°58' W 005°01'0 0.0
2017-Apr-26 05:58N 54°58' W 005°01'0 0.0
2017-Apr-26 05:30N 54°58' W 005°01'0 0.2
2017-Apr-26 05:01N 54°58' W 005°01'611.4
2017-Apr-26 04:30N 55°01' W 005°09'1019.1
2017-Apr-26 04:00N 54°57' W 005°23'1019.7
2017-Apr-26 03:30N 54°52' W 005°38'611.3
2017-Apr-26 03:00N 54°51' W 005°48'0 0.1
2017-Apr-26 02:22N 54°51' W 005°48'0 0.0
2017-Apr-26 01:58N 54°51' W 005°48'0 0.0
2017-Apr-26 01:28N 54°51' W 005°48'0 0.0
2017-Apr-26 00:58N 54°51' W 005°48'3 5.9
2017-Apr-26 00:30N 54°53' W 005°45'919.0
2017-Apr-26 00:01N 54°57' W 005°30'918.0
2017-Apr-25 23:31N 55°00' W 005°15'714.2
2017-Apr-25 23:00N 54°59' W 005°03'2 4.0
2017-Apr-25 22:30N 54°58' W 005°01'0 0.0
2017-Apr-25 21:59N 54°58' W 005°01'0 0.0
2017-Apr-25 21:30N 54°58' W 005°01'0 0.0
2017-Apr-25 21:00N 54°58' W 005°01'5 9.4
2017-Apr-25 20:29N 55°02' W 005°06'818.0
2017-Apr-25 20:01N 54°58' W 005°20'1019.3
2017-Apr-25 19:31N 54°54' W 005°35'816.0
2017-Apr-25 19:00N 54°51' W 005°48'0 0.1
2017-Apr-25 18:28N 54°51' W 005°48'0 0.0
2017-Apr-25 17:58N 54°51' W 005°48'0 0.0
2017-Apr-25 17:30N 54°51' W 005°48'510.5
2017-Apr-25 17:00N 54°54' W 005°40'917.6
2017-Apr-25 16:30N 54°58' W 005°27'917.5
2017-Apr-25 16:00N 55°01' W 005°12'713.4
2017-Apr-25 15:31N 54°58' W 005°02'1 1.1
2017-Apr-25 15:00N 54°58' W 005°01'0 0.0
2017-Apr-25 14:30N 54°58' W 005°01'1212.1
2017-Apr-25 13:31N 54°58' W 005°22'1019.1
2017-Apr-25 13:00N 54°54' W 005°37'713.7
2017-Apr-25 12:31N 54°51' W 005°48'0 0.1
2017-Apr-25 12:01N 54°51' W 005°48'0 0.0
2017-Apr-25 11:31N 54°51' W 005°48'611.3
2017-Apr-25 11:00N 54°54' W 005°40'1020.8
2017-Apr-25 10:30N 54°58' W 005°23'1117.3
2017-Apr-25 09:52N 55°01' W 005°04'4 8.9
2017-Apr-25 09:28N 54°58' W 005°01'0 0.0
2017-Apr-25 08:58N 54°58' W 005°01'0 0.0
2017-Apr-25 08:30N 54°58' W 005°01'5 9.9
2017-Apr-25 08:00N 55°02' W 005°07'918.2
2017-Apr-25 07:30N 54°58' W 005°21'1718.3
2017-Apr-25 06:35N 54°51' W 005°48'0 1.0
2017-Apr-25 06:30N 54°51' W 005°48'0 0.0
2017-Apr-25 06:00N 54°51' W 005°48'0 0.0
2017-Apr-25 05:30N 54°51' W 005°48'0 0.1
2017-Apr-25 05:00N 54°51' W 005°48'815.5
2017-Apr-25 04:30N 54°55' W 005°36'1019.3
2017-Apr-25 04:00N 54°59' W 005°21'1017.5
2017-Apr-25 03:27N 55°01' W 005°04'4 8.0
2017-Apr-25 03:00N 54°58' W 005°01'0 0.0
2017-Apr-25 02:30N 54°58' W 005°01'0 0.0
2017-Apr-25 02:00N 54°58' W 005°01'0 0.0
2017-Apr-25 01:30N 54°58' W 005°01'0 0.3
2017-Apr-25 01:01N 54°58' W 005°01'713.1
2017-Apr-25 00:30N 55°01' W 005°11'1019.4
2017-Apr-25 00:00N 54°57' W 005°26'918.8
2017-Apr-24 23:30N 54°53' W 005°41'4 8.9
2017-Apr-24 23:00N 54°51' W 005°48'0 0.0
2017-Apr-24 22:30N 54°51' W 005°48'0 0.0
2017-Apr-24 22:00N 54°51' W 005°48'0 0.0
2017-Apr-24 21:30N 54°51' W 005°48'0 0.4
2017-Apr-24 21:00N 54°51' W 005°48'714.1
2017-Apr-24 20:30N 54°55' W 005°37'816.2
2017-Apr-24 20:00N 54°58' W 005°24'816.5
2017-Apr-24 19:31N 55°01' W 005°11'713.2
2017-Apr-24 19:01N 54°58' W 005°01'0 0.6
2017-Apr-24 18:30N 54°58' W 005°01'0 0.0
2017-Apr-24 18:00N 54°58' W 005°01'1 1.8
2017-Apr-24 17:31N 54°58' W 005°02'713.2
2017-Apr-24 17:00N 55°01' W 005°13'1020.0
2017-Apr-24 16:30N 54°56' W 005°28'1020.8
2017-Apr-24 16:00N 54°52' W 005°45'2 4.3
2017-Apr-24 15:30N 54°51' W 005°48'0 0.0
2017-Apr-24 15:00N 54°51' W 005°48'0 0.0
2017-Apr-24 14:30N 54°51' W 005°48'1313.0
2017-Apr-24 13:31N 54°57' W 005°28'917.1
2017-Apr-24 13:01N 55°01' W 005°15'713.6
2017-Apr-24 12:31N 54°59' W 005°03'2 3.6
2017-Apr-24 12:00N 54°58' W 005°01'0 0.0
2017-Apr-24 11:30N 54°58' W 005°01'5 9.1
2017-Apr-24 10:58N 55°01' W 005°06'818.3
2017-Apr-24 10:30N 54°58' W 005°20'918.0
2017-Apr-24 10:00N 54°55' W 005°34'816.9
2017-Apr-24 09:30N 54°51' W 005°48'0 0.7
2017-Apr-24 09:00N 54°51' W 005°48'0 0.0
2017-Apr-24 08:30N 54°51' W 005°48'3 6.9
2017-Apr-24 08:01N 54°53' W 005°43'917.7
2017-Apr-24 07:30N 54°57' W 005°29'918.0
2017-Apr-24 07:00N 55°00' W 005°15'714.1
2017-Apr-24 06:31N 54°59' W 005°03'2 3.2
2017-Apr-24 06:00N 54°58' W 005°01'0 0.0
2017-Apr-24 05:30N 54°58' W 005°01'0 0.0
2017-Apr-24 05:00N 54°58' W 005°01'5 9.3
2017-Apr-24 04:29N 55°02' W 005°06'918.6
2017-Apr-24 04:01N 54°58' W 005°20'1020.3
2017-Apr-24 03:30N 54°54' W 005°37'714.3
2017-Apr-24 03:00N 54°51' W 005°48'0 0.1
2017-Apr-24 02:30N 54°51' W 005°48'0 0.0
2017-Apr-24 01:57N 54°51' W 005°48'0 0.0
2017-Apr-24 01:30N 54°51' W 005°48'0 0.0
2017-Apr-24 01:00N 54°51' W 005°48'0 0.0
2017-Apr-24 00:27N 54°51' W 005°48'0 0.0
2017-Apr-23 23:54N 54°51' W 005°48'4 8.8
2017-Apr-23 23:29N 54°53' W 005°43'918.0
2017-Apr-23 23:00N 54°57' W 005°29'917.3
2017-Apr-23 22:31N 55°01' W 005°16'714.0
2017-Apr-23 22:00N 54°59' W 005°03'2 4.4
2017-Apr-23 21:30N 54°58' W 005°01'0 0.0
2017-Apr-23 21:00N 54°58' W 005°01'5 9.5
2017-Apr-23 20:29N 55°02' W 005°06'817.5
2017-Apr-23 20:00N 54°58' W 005°20'918.3
2017-Apr-23 19:30N 54°54' W 005°34'916.8
2017-Apr-23 19:00N 54°51' W 005°48'0 0.3
2017-Apr-23 18:30N 54°51' W 005°48'0 0.0
2017-Apr-23 18:00N 54°51' W 005°48'0 0.0
2017-Apr-23 17:30N 54°51' W 005°48'612.1
2017-Apr-23 17:00N 54°54' W 005°39'918.1
2017-Apr-23 16:30N 54°58' W 005°25'918.7
2017-Apr-23 16:00N 55°02' W 005°10'612.4
2017-Apr-23 15:30N 54°58' W 005°01'0 0.0
2017-Apr-23 14:55N 54°58' W 005°01'5 5.2
2017-Apr-23 13:59N 55°02' W 005°06'917.8
2017-Apr-23 13:30N 54°58' W 005°20'918.0
2017-Apr-23 13:00N 54°55' W 005°34'816.6
2017-Apr-23 12:30N 54°51' W 005°48'0 0.8
2017-Apr-23 12:00N 54°51' W 005°48'0 0.0
2017-Apr-23 11:30N 54°51' W 005°48'611.9
2017-Apr-23 11:00N 54°54' W 005°39'816.4
2017-Apr-23 10:30N 54°58' W 005°26'816.6
2017-Apr-23 10:00N 55°01' W 005°13'714.1
2017-Apr-23 09:30N 54°58' W 005°02'1 1.2
2017-Apr-23 08:57N 54°58' W 005°01'0 0.0
2017-Apr-23 08:24N 54°58' W 005°01'5 9.7
2017-Apr-23 07:53N 55°01' W 005°07'719.5
2017-Apr-23 07:30N 54°59' W 005°18'1020.5
2017-Apr-23 07:00N 54°54' W 005°35'816.7
2017-Apr-23 06:31N 54°51' W 005°48'0 0.2
2017-Apr-23 06:00N 54°51' W 005°48'0 0.0
2017-Apr-23 05:30N 54°51' W 005°48'0 0.0
2017-Apr-23 05:00N 54°51' W 005°48'0 0.0
2017-Apr-23 04:30N 54°51' W 005°48'0 0.0
2017-Apr-23 04:00N 54°51' W 005°48'0 0.0
2017-Apr-23 03:29N 54°51' W 005°48'0 0.0
2017-Apr-23 03:00N 54°51' W 005°48'0 0.0
2017-Apr-23 02:30N 54°51' W 005°48'0 0.0
2017-Apr-23 02:00N 54°51' W 005°48'0 0.0
2017-Apr-23 01:30N 54°51' W 005°48'0 0.0
2017-Apr-23 01:00N 54°51' W 005°48'0 0.0
2017-Apr-23 00:30N 54°51' W 005°48'0 0.0
2017-Apr-23 00:00N 54°51' W 005°48'0 0.0
2017-Apr-22 23:30N 54°51' W 005°48'0 0.0
2017-Apr-22 23:00N 54°51' W 005°48'0 0.0
2017-Apr-22 22:30N 54°51' W 005°48'0 0.0
2017-Apr-22 22:00N 54°51' W 005°48'0 0.0
2017-Apr-22 21:30N 54°51' W 005°48'0 0.0
2017-Apr-22 21:00N 54°51' W 005°48'0 0.0
2017-Apr-22 20:30N 54°51' W 005°48'0 0.0
2017-Apr-22 20:00N 54°51' W 005°48'0 0.0
2017-Apr-22 19:30N 54°51' W 005°48'0 0.0
2017-Apr-22 19:00N 54°51' W 005°48'0 0.0
2017-Apr-22 18:30N 54°51' W 005°48'0 0.0
2017-Apr-22 18:00N 54°51' W 005°48'0 0.0
2017-Apr-22 17:30N 54°51' W 005°48'611.7
2017-Apr-22 17:01N 54°54' W 005°39'917.3
2017-Apr-22 16:31N 54°58' W 005°26'917.8
2017-Apr-22 16:00N 55°01' W 005°11'612.9
2017-Apr-22 15:30N 54°58' W 005°01'0 0.7
2017-Apr-22 15:00N 54°58' W 005°01'0 0.0
2017-Apr-22 14:30N 54°58' W 005°01'1111.5
2017-Apr-22 13:30N 54°58' W 005°21'918.3
2017-Apr-22 13:00N 54°54' W 005°36'815.6
2017-Apr-22 12:31N 54°51' W 005°48'0 0.2
2017-Apr-22 12:00N 54°51' W 005°48'0 0.0
2017-Apr-22 11:30N 54°51' W 005°48'612.1
2017-Apr-22 11:00N 54°54' W 005°39'817.0
2017-Apr-22 10:30N 54°58' W 005°26'917.3
2017-Apr-22 10:00N 55°01' W 005°12'713.9
2017-Apr-22 09:30N 54°58' W 005°01'0 0.3
2017-Apr-22 09:00N 54°58' W 005°01'0 0.0
2017-Apr-22 08:30N 54°58' W 005°01'510.2
2017-Apr-22 08:00N 55°02' W 005°07'917.2
2017-Apr-22 07:30N 54°58' W 005°20'917.6
2017-Apr-22 07:01N 54°55' W 005°34'816.6
2017-Apr-22 06:30N 54°51' W 005°48'0 0.6
2017-Apr-22 06:00N 54°51' W 005°48'0 0.0
2017-Apr-22 05:30N 54°51' W 005°48'0 0.0
2017-Apr-22 05:00N 54°51' W 005°48'4 8.7
2017-Apr-22 04:31N 54°53' W 005°42'1019.7
2017-Apr-22 04:01N 54°58' W 005°26'1020.1
2017-Apr-22 03:30N 55°02' W 005°10'612.8
2017-Apr-22 03:00N 54°58' W 005°01'0 0.4
2017-Apr-22 02:30N 54°58' W 005°01'0 0.0
2017-Apr-22 02:00N 54°58' W 005°01'0 0.0
2017-Apr-22 01:30N 54°58' W 005°01'0 0.0
2017-Apr-22 01:00N 54°58' W 005°01'5 9.6
2017-Apr-22 00:30N 55°02' W 005°06'917.8
2017-Apr-22 00:01N 54°58' W 005°20'918.1
2017-Apr-21 23:30N 54°54' W 005°34'816.5
2017-Apr-21 23:01N 54°51' W 005°48'0 0.7
2017-Apr-21 22:29N 54°51' W 005°48'0 0.0
2017-Apr-21 21:56N 54°51' W 005°48'0 0.0
2017-Apr-21 21:29N 54°51' W 005°48'0 0.0
2017-Apr-21 21:00N 54°51' W 005°48'5 9.5
2017-Apr-21 20:29N 54°54' W 005°41'918.3
2017-Apr-21 20:01N 54°57' W 005°27'917.8
2017-Apr-21 19:31N 55°01' W 005°13'713.5
2017-Apr-21 19:01N 54°58' W 005°02'1 1.7
2017-Apr-21 18:26N 54°58' W 005°01'0 0.0
2017-Apr-21 17:32N 54°58' W 005°01'0 0.2
2017-Apr-21 17:30N 54°58' W 005°01'510.0
2017-Apr-21 17:00N 55°01' W 005°06'816.7
2017-Apr-21 16:31N 54°58' W 005°20'917.3
2017-Apr-21 16:00N 54°55' W 005°34'917.5
2017-Apr-21 15:31N 54°51' W 005°48'0 1.0
2017-Apr-21 15:00N 54°51' W 005°48'0 0.0
2017-Apr-21 14:31N 54°51' W 005°48'1616.1
2017-Apr-21 13:30N 54°58' W 005°23'1019.4
2017-Apr-21 13:00N 55°02' W 005°07'510.7
2017-Apr-21 12:30N 54°58' W 005°01'0 0.0
2017-Apr-21 12:00N 54°58' W 005°01'0 0.0
2017-Apr-21 11:30N 54°58' W 005°01'510.3
2017-Apr-21 11:00N 55°02' W 005°07'917.7
2017-Apr-21 10:30N 54°58' W 005°21'917.8
2017-Apr-21 10:00N 54°54' W 005°35'815.9
2017-Apr-21 09:31N 54°51' W 005°48'0 0.2
2017-Apr-21 08:56N 54°51' W 005°48'0 0.0
2017-Apr-21 08:30N 54°51' W 005°48'713.2
2017-Apr-21 08:00N 54°54' W 005°38'918.2
2017-Apr-21 07:30N 54°58' W 005°24'917.8
2017-Apr-21 07:00N 55°02' W 005°10'612.5
2017-Apr-21 06:30N 54°58' W 005°01'0 0.0
2017-Apr-21 06:00N 54°58' W 005°01'0 0.0
2017-Apr-21 05:30N 54°58' W 005°01'0 0.1
2017-Apr-21 05:00N 54°58' W 005°01'612.6
2017-Apr-21 04:30N 55°01' W 005°10'917.8
2017-Apr-21 04:00N 54°57' W 005°23'918.8
2017-Apr-21 03:30N 54°53' W 005°38'612.0
2017-Apr-21 03:00N 54°51' W 005°48'0 0.0
2017-Apr-21 02:30N 54°51' W 005°48'0 0.0
2017-Apr-21 02:00N 54°51' W 005°48'0 0.0
2017-Apr-21 01:30N 54°51' W 005°48'0 0.0
2017-Apr-21 01:00N 54°51' W 005°48'611.6
2017-Apr-21 00:30N 54°54' W 005°39'1019.8
2017-Apr-21 00:01N 54°58' W 005°24'1019.6
2017-Apr-20 23:30N 55°02' W 005°08'611.5
2017-Apr-20 23:01N 54°58' W 005°01'0 0.0
2017-Apr-20 22:30N 54°58' W 005°01'0 0.0
2017-Apr-20 22:01N 54°58' W 005°01'0 0.0
2017-Apr-20 21:30N 54°58' W 005°01'0 0.8
2017-Apr-20 21:00N 54°58' W 005°01'713.2
2017-Apr-20 20:31N 55°01' W 005°12'918.2
2017-Apr-20 20:01N 54°57' W 005°26'918.2
2017-Apr-20 19:31N 54°53' W 005°40'5 9.9
2017-Apr-20 19:01N 54°51' W 005°48'0 0.0
2017-Apr-20 18:30N 54°51' W 005°48'0 0.0
2017-Apr-20 18:00N 54°51' W 005°48'0 0.0
2017-Apr-20 17:30N 54°51' W 005°48'611.6
2017-Apr-20 17:00N 54°54' W 005°39'918.2
2017-Apr-20 16:30N 54°58' W 005°25'918.1
2017-Apr-20 16:00N 55°01' W 005°11'713.1
2017-Apr-20 15:30N 54°58' W 005°01'0 0.0
2017-Apr-20 15:01N 54°58' W 005°01'  
Track history (hours):
 
Tides and Currents Weather Stations Pressure Air Temp Water Temp Dewpoint Dewpoint Depression Visibility Wind Speed Wind Dir Waves Ship Positions

European Causeway

Operator: P & O Irish Sea

Last reported at 2017-Apr-30 14:31 UTC. Time now 2017-Apr-30 14:53 UTC.
Position N 54°58' W 005°01'.

Length 165 m; draft 5.5 m.

Type: Ship (hazmat cat A). MMSI: 311027000.

Date/timePositionNaut miles runAvg speedWind from/ knotsBaromVisibWave heightAir tempDewpointWater temp
2017-Apr-30 14:31N 54°58' W 005°01'6 5.5
2017-Apr-30 13:30N 55°02' W 005°08'816.8
2017-Apr-30 13:01N 54°58' W 005°21'816.8
2017-Apr-30 12:31N 54°55' W 005°34'816.3
2017-Apr-30 12:00N 54°51' W 005°48'1 1.0
2017-Apr-30 11:30N 54°51' W 005°48'0 0.0
2017-Apr-30 11:00N 54°51' W 005°48'0 0.0
2017-Apr-30 10:30N 54°51' W 005°48'0 0.0
2017-Apr-30 10:00N 54°51' W 005°48'0 0.0
2017-Apr-30 09:30N 54°51' W 005°48'0 0.0
2017-Apr-30 09:00N 54°51' W 005°48'0 0.0
2017-Apr-30 08:30N 54°51' W 005°48'4 7.2
2017-Apr-30 08:00N 54°53' W 005°43'917.8
2017-Apr-30 07:31N 54°57' W 005°29'918.1
2017-Apr-30 07:00N 55°02' W 005°16'815.8
2017-Apr-30 06:30N 54°59' W 005°03'2 3.0
2017-Apr-30 06:00N 54°58' W 005°01'0 0.0
2017-Apr-30 05:30N 54°58' W 005°01'0 0.0
2017-Apr-30 05:00N 54°58' W 005°01'0 0.0
2017-Apr-30 04:30N 54°58' W 005°01'0 0.0
2017-Apr-30 04:00N 54°58' W 005°01'0 0.0
2017-Apr-30 03:30N 54°58' W 005°01'0 0.0
2017-Apr-30 03:00N 54°58' W 005°01'0 0.0
2017-Apr-30 02:30N 54°58' W 005°01'0 0.0
2017-Apr-30 02:00N 54°58' W 005°01'0 0.0
2017-Apr-30 01:30N 54°58' W 005°01'0 0.0
2017-Apr-30 01:00N 54°58' W 005°01'0 0.0
2017-Apr-30 00:30N 54°58' W 005°01'0 0.0
2017-Apr-30 00:00N 54°58' W 005°01'0 0.0
2017-Apr-29 23:30N 54°58' W 005°01'0 0.0
2017-Apr-29 23:00N 54°58' W 005°01'0 0.0
2017-Apr-29 22:30N 54°58' W 005°01'0 0.0
2017-Apr-29 22:00N 54°58' W 005°01'0 0.0
2017-Apr-29 21:30N 54°58' W 005°01'0 0.1
2017-Apr-29 21:00N 54°58' W 005°01'510.6
2017-Apr-29 20:30N 55°01' W 005°07'816.7
2017-Apr-29 20:00N 54°58' W 005°21'917.9
2017-Apr-29 19:31N 54°54' W 005°35'816.3
2017-Apr-29 19:01N 54°51' W 005°48'0 0.3
2017-Apr-29 18:31N 54°51' W 005°48'0 0.0
2017-Apr-29 18:00N 54°51' W 005°48'0 0.0
2017-Apr-29 17:31N 54°51' W 005°48'4 8.1
2017-Apr-29 17:01N 54°53' W 005°42'918.1
2017-Apr-29 16:30N 54°58' W 005°28'917.7
2017-Apr-29 16:01N 55°01' W 005°14'815.1
2017-Apr-29 15:31N 54°58' W 005°02'1 1.6
2017-Apr-29 14:57N 54°58' W 005°01'0 0.0
2017-Apr-29 14:31N 54°58' W 005°01'1212.0
2017-Apr-29 13:31N 54°57' W 005°22'1019.9
2017-Apr-29 13:01N 54°54' W 005°38'612.7
2017-Apr-29 12:30N 54°51' W 005°48'0 0.0
2017-Apr-29 12:00N 54°51' W 005°48'0 0.0
2017-Apr-29 11:30N 54°51' W 005°48'510.3
2017-Apr-29 11:00N 54°54' W 005°40'917.4
2017-Apr-29 10:30N 54°57' W 005°27'918.0
2017-Apr-29 10:00N 55°01' W 005°12'713.4
2017-Apr-29 09:30N 54°58' W 005°02'1 1.3
2017-Apr-29 09:00N 54°58' W 005°01'0 0.0
2017-Apr-29 08:30N 54°58' W 005°01'5 9.7
2017-Apr-29 07:58N 55°02' W 005°07'817.5
2017-Apr-29 07:31N 54°58' W 005°20'919.0
2017-Apr-29 07:01N 54°54' W 005°35'816.1
2017-Apr-29 06:30N 54°51' W 005°48'0 0.2
2017-Apr-29 06:00N 54°51' W 005°48'0 0.0
2017-Apr-29 05:30N 54°51' W 005°48'0 0.0
2017-Apr-29 05:00N 54°51' W 005°48'611.1
2017-Apr-29 04:30N 54°54' W 005°40'1020.3
2017-Apr-29 04:00N 54°58' W 005°24'1019.0
2017-Apr-29 03:30N 55°01' W 005°08'611.2
2017-Apr-29 03:00N 54°58' W 005°01'0 0.0
2017-Apr-29 02:23N 54°58' W 005°01'0 0.0
2017-Apr-29 01:56N 54°58' W 005°01'0 0.0
2017-Apr-29 01:29N 54°58' W 005°01'0 0.0
2017-Apr-29 00:59N 54°58' W 005°01'510.4
2017-Apr-29 00:28N 55°01' W 005°08'817.5
2017-Apr-29 00:00N 54°57' W 005°20'918.3
2017-Apr-28 23:30N 54°54' W 005°35'816.3
2017-Apr-28 23:00N 54°51' W 005°48'0 0.2
2017-Apr-28 22:29N 54°51' W 005°48'0 0.0
2017-Apr-28 21:59N 54°51' W 005°48'0 0.0
2017-Apr-28 21:29N 54°51' W 005°48'0 0.0
2017-Apr-28 21:00N 54°51' W 005°48'611.3
2017-Apr-28 20:30N 54°54' W 005°40'816.9
2017-Apr-28 20:00N 54°58' W 005°26'917.7
2017-Apr-28 19:30N 55°01' W 005°12'713.1
2017-Apr-28 19:00N 54°58' W 005°02'1 1.5
2017-Apr-28 18:25N 54°58' W 005°01'0 0.0
2017-Apr-28 17:58N 54°58' W 005°01'0 0.0
2017-Apr-28 17:30N 54°58' W 005°01'5 9.8
2017-Apr-28 17:00N 55°02' W 005°06'918.1
2017-Apr-28 16:30N 54°58' W 005°21'918.1
2017-Apr-28 16:00N 54°54' W 005°35'815.9
2017-Apr-28 15:31N 54°51' W 005°48'0 0.4
2017-Apr-28 15:01N 54°51' W 005°48'7 6.9
2017-Apr-28 14:01N 54°55' W 005°38'1020.9
2017-Apr-28 13:30N 54°59' W 005°21'1016.4
2017-Apr-28 12:53N 54°59' W 005°03'2 5.5
2017-Apr-28 12:28N 54°58' W 005°01'0 0.0
2017-Apr-28 11:58N 54°58' W 005°01'0 0.0
2017-Apr-28 11:29N 54°58' W 005°01'510.0
2017-Apr-28 10:59N 55°02' W 005°07'919.4
2017-Apr-28 10:30N 54°58' W 005°21'1020.2
2017-Apr-28 10:00N 54°54' W 005°37'713.3
2017-Apr-28 09:30N 54°51' W 005°48'0 0.0
2017-Apr-28 09:00N 54°51' W 005°48'0 0.1
2017-Apr-28 08:30N 54°51' W 005°48'613.0
2017-Apr-28 08:01N 54°54' W 005°38'917.7
2017-Apr-28 07:31N 54°58' W 005°24'918.7
2017-Apr-28 07:00N 55°02' W 005°09'611.5
2017-Apr-28 06:31N 54°58' W 005°02'1 0.9
2017-Apr-28 05:58N 54°58' W 005°01'0 0.0
2017-Apr-28 05:28N 54°58' W 005°01'0 0.3
2017-Apr-28 05:00N 54°58' W 005°01'611.1
2017-Apr-28 04:30N 55°01' W 005°08'918.3
2017-Apr-28 04:00N 54°58' W 005°23'917.9
2017-Apr-28 03:31N 54°54' W 005°37'713.8
2017-Apr-28 03:01N 54°51' W 005°48'0 0.1
2017-Apr-28 02:29N 54°51' W 005°48'0 0.0
2017-Apr-28 01:59N 54°51' W 005°48'0 0.0
2017-Apr-28 01:29N 54°51' W 005°48'0 0.0
2017-Apr-28 00:59N 54°51' W 005°48'511.2
2017-Apr-28 00:31N 54°54' W 005°40'918.8
2017-Apr-28 00:01N 54°58' W 005°25'918.1
2017-Apr-27 23:31N 55°01' W 005°11'712.8
2017-Apr-27 22:59N 54°58' W 005°01'0 0.0
2017-Apr-27 21:01N 54°58' W 005°01'0 0.1
2017-Apr-27 20:59N 54°58' W 005°01'5 9.8
2017-Apr-27 20:28N 55°02' W 005°07'817.9
2017-Apr-27 20:01N 54°58' W 005°20'1020.3
2017-Apr-27 19:30N 54°54' W 005°36'715.0
2017-Apr-27 19:00N 54°51' W 005°48'0 0.0
2017-Apr-27 18:31N 54°51' W 005°48'0 0.0
2017-Apr-27 18:01N 54°51' W 005°48'0 0.0
2017-Apr-27 17:31N 54°51' W 005°48'5 9.2
2017-Apr-27 17:00N 54°53' W 005°41'1020.0
2017-Apr-27 16:30N 54°58' W 005°26'1019.5
2017-Apr-27 16:00N 55°01' W 005°10'612.7
2017-Apr-27 15:30N 54°58' W 005°01'0 0.0
2017-Apr-27 15:00N 54°58' W 005°01'5 5.2
2017-Apr-27 14:00N 55°02' W 005°07'1020.6
2017-Apr-27 13:30N 54°57' W 005°23'919.0
2017-Apr-27 13:00N 54°54' W 005°39'612.1
2017-Apr-27 12:31N 54°51' W 005°48'0 0.0
2017-Apr-27 12:00N 54°51' W 005°48'0 0.0
2017-Apr-27 11:30N 54°51' W 005°48'510.9
2017-Apr-27 11:00N 54°54' W 005°40'917.7
2017-Apr-27 10:30N 54°57' W 005°26'918.1
2017-Apr-27 10:00N 55°01' W 005°12'713.2
2017-Apr-27 09:30N 54°58' W 005°02'0 0.8
2017-Apr-27 09:00N 54°58' W 005°01'0 0.0
2017-Apr-27 08:31N 54°58' W 005°01'5 9.7
2017-Apr-27 07:58N 55°02' W 005°07'816.6
2017-Apr-27 07:30N 54°58' W 005°19'918.6
2017-Apr-27 07:00N 54°55' W 005°34'917.4
2017-Apr-27 06:31N 54°51' W 005°48'0 0.4
2017-Apr-27 06:00N 54°51' W 005°48'0 0.0
2017-Apr-27 05:30N 54°51' W 005°48'0 0.0
2017-Apr-27 05:00N 54°51' W 005°48'611.7
2017-Apr-27 04:30N 54°54' W 005°39'1019.9
2017-Apr-27 04:00N 54°58' W 005°24'1019.0
2017-Apr-27 03:30N 55°02' W 005°08'611.3
2017-Apr-27 03:01N 54°58' W 005°01'0 0.0
2017-Apr-27 02:27N 54°58' W 005°01'0 0.0
2017-Apr-27 01:59N 54°58' W 005°01'0 0.0
2017-Apr-27 01:26N 54°58' W 005°01'0 0.2
2017-Apr-27 01:00N 54°58' W 005°01'612.6
2017-Apr-27 00:30N 55°01' W 005°10'1020.4
2017-Apr-27 00:00N 54°56' W 005°26'1019.4
2017-Apr-26 23:30N 54°53' W 005°41'4 8.4
2017-Apr-26 23:00N 54°51' W 005°48'0 0.0
2017-Apr-26 22:26N 54°51' W 005°48'0 0.0
2017-Apr-26 21:56N 54°51' W 005°48'0 0.0
2017-Apr-26 21:29N 54°51' W 005°48'0 0.0
2017-Apr-26 21:00N 54°51' W 005°48'611.1
2017-Apr-26 20:30N 54°54' W 005°40'917.6
2017-Apr-26 20:00N 54°58' W 005°26'918.9
2017-Apr-26 19:30N 55°01' W 005°11'713.6
2017-Apr-26 19:00N 54°58' W 005°01'0 0.1
2017-Apr-26 18:30N 54°58' W 005°01'0 0.0
2017-Apr-26 18:00N 54°58' W 005°01'0 0.2
2017-Apr-26 17:30N 54°58' W 005°01'511.0
2017-Apr-26 17:01N 55°01' W 005°08'917.4
2017-Apr-26 16:31N 54°58' W 005°22'918.1
2017-Apr-26 16:01N 54°54' W 005°36'712.5
2017-Apr-26 15:25N 54°51' W 005°48'0 0.0
2017-Apr-26 15:01N 54°51' W 005°48'3 2.7
2017-Apr-26 14:00N 54°53' W 005°44'918.9
2017-Apr-26 13:30N 54°57' W 005°30'918.0
2017-Apr-26 13:00N 55°00' W 005°15'714.2
2017-Apr-26 12:30N 54°59' W 005°03'2 3.8
2017-Apr-26 12:00N 54°58' W 005°01'0 0.0
2017-Apr-26 11:30N 54°58' W 005°01'510.1
2017-Apr-26 11:00N 55°01' W 005°07'918.2
2017-Apr-26 10:30N 54°58' W 005°21'917.9
2017-Apr-26 10:00N 54°54' W 005°35'815.8
2017-Apr-26 09:30N 54°51' W 005°48'0 0.1
2017-Apr-26 08:57N 54°51' W 005°48'0 0.0
2017-Apr-26 08:30N 54°51' W 005°48'5 9.6
2017-Apr-26 08:01N 54°53' W 005°41'918.2
2017-Apr-26 07:30N 54°57' W 005°26'1121.0
2017-Apr-26 07:00N 55°01' W 005°10'612.1
2017-Apr-26 06:30N 54°58' W 005°01'0 0.0
2017-Apr-26 05:58N 54°58' W 005°01'0 0.0
2017-Apr-26 05:30N 54°58' W 005°01'0 0.2
2017-Apr-26 05:01N 54°58' W 005°01'611.4
2017-Apr-26 04:30N 55°01' W 005°09'1019.1
2017-Apr-26 04:00N 54°57' W 005°23'1019.7
2017-Apr-26 03:30N 54°52' W 005°38'611.3
2017-Apr-26 03:00N 54°51' W 005°48'0 0.1
2017-Apr-26 02:22N 54°51' W 005°48'0 0.0
2017-Apr-26 01:58N 54°51' W 005°48'0 0.0
2017-Apr-26 01:28N 54°51' W 005°48'0 0.0
2017-Apr-26 00:58N 54°51' W 005°48'3 5.9
2017-Apr-26 00:30N 54°53' W 005°45'919.0
2017-Apr-26 00:01N 54°57' W 005°30'918.0
2017-Apr-25 23:31N 55°00' W 005°15'714.2
2017-Apr-25 23:00N 54°59' W 005°03'2 4.0
2017-Apr-25 22:30N 54°58' W 005°01'0 0.0
2017-Apr-25 21:59N 54°58' W 005°01'0 0.0
2017-Apr-25 21:30N 54°58' W 005°01'0 0.0
2017-Apr-25 21:00N 54°58' W 005°01'5 9.4
2017-Apr-25 20:29N 55°02' W 005°06'818.0
2017-Apr-25 20:01N 54°58' W 005°20'1019.3
2017-Apr-25 19:31N 54°54' W 005°35'816.0
2017-Apr-25 19:00N 54°51' W 005°48'0 0.1
2017-Apr-25 18:28N 54°51' W 005°48'0 0.0
2017-Apr-25 17:58N 54°51' W 005°48'0 0.0
2017-Apr-25 17:30N 54°51' W 005°48'510.5
2017-Apr-25 17:00N 54°54' W 005°40'917.6
2017-Apr-25 16:30N 54°58' W 005°27'917.5
2017-Apr-25 16:00N 55°01' W 005°12'713.4
2017-Apr-25 15:31N 54°58' W 005°02'1 1.1
2017-Apr-25 15:00N 54°58' W 005°01'0 0.0
2017-Apr-25 14:30N 54°58' W 005°01'1212.1
2017-Apr-25 13:31N 54°58' W 005°22'1019.1
2017-Apr-25 13:00N 54°54' W 005°37'713.7
2017-Apr-25 12:31N 54°51' W 005°48'0 0.1
2017-Apr-25 12:01N 54°51' W 005°48'0 0.0
2017-Apr-25 11:31N 54°51' W 005°48'611.3
2017-Apr-25 11:00N 54°54' W 005°40'1020.8
2017-Apr-25 10:30N 54°58' W 005°23'1117.3
2017-Apr-25 09:52N 55°01' W 005°04'4 8.9
2017-Apr-25 09:28N 54°58' W 005°01'0 0.0
2017-Apr-25 08:58N 54°58' W 005°01'0 0.0
2017-Apr-25 08:30N 54°58' W 005°01'5 9.9
2017-Apr-25 08:00N 55°02' W 005°07'918.2
2017-Apr-25 07:30N 54°58' W 005°21'1718.3
2017-Apr-25 06:35N 54°51' W 005°48'0 1.0
2017-Apr-25 06:30N 54°51' W 005°48'0 0.0
2017-Apr-25 06:00N 54°51' W 005°48'0 0.0
2017-Apr-25 05:30N 54°51' W 005°48'0 0.1
2017-Apr-25 05:00N 54°51' W 005°48'815.5
2017-Apr-25 04:30N 54°55' W 005°36'1019.3
2017-Apr-25 04:00N 54°59' W 005°21'1017.5
2017-Apr-25 03:27N 55°01' W 005°04'4 8.0
2017-Apr-25 03:00N 54°58' W 005°01'0 0.0
2017-Apr-25 02:30N 54°58' W 005°01'0 0.0
2017-Apr-25 02:00N 54°58' W 005°01'0 0.0
2017-Apr-25 01:30N 54°58' W 005°01'0 0.3
2017-Apr-25 01:01N 54°58' W 005°01'713.1
2017-Apr-25 00:30N 55°01' W 005°11'1019.4
2017-Apr-25 00:00N 54°57' W 005°26'918.8
2017-Apr-24 23:30N 54°53' W 005°41'4 8.9
2017-Apr-24 23:00N 54°51' W 005°48'0 0.0
2017-Apr-24 22:30N 54°51' W 005°48'0 0.0
2017-Apr-24 22:00N 54°51' W 005°48'0 0.0
2017-Apr-24 21:30N 54°51' W 005°48'0 0.4
2017-Apr-24 21:00N 54°51' W 005°48'714.1
2017-Apr-24 20:30N 54°55' W 005°37'816.2
2017-Apr-24 20:00N 54°58' W 005°24'816.5
2017-Apr-24 19:31N 55°01' W 005°11'713.2
2017-Apr-24 19:01N 54°58' W 005°01'0 0.6
2017-Apr-24 18:30N 54°58' W 005°01'0 0.0
2017-Apr-24 18:00N 54°58' W 005°01'1 1.8
2017-Apr-24 17:31N 54°58' W 005°02'713.2
2017-Apr-24 17:00N 55°01' W 005°13'1020.0
2017-Apr-24 16:30N 54°56' W 005°28'1020.8
2017-Apr-24 16:00N 54°52' W 005°45'2 4.3
2017-Apr-24 15:30N 54°51' W 005°48'0 0.0
2017-Apr-24 15:00N 54°51' W 005°48'0 0.0
2017-Apr-24 14:30N 54°51' W 005°48'1313.0
2017-Apr-24 13:31N 54°57' W 005°28'917.1
2017-Apr-24 13:01N 55°01' W 005°15'713.6
2017-Apr-24 12:31N 54°59' W 005°03'2 3.6
2017-Apr-24 12:00N 54°58' W 005°01'0 0.0
2017-Apr-24 11:30N 54°58' W 005°01'5 9.1
2017-Apr-24 10:58N 55°01' W 005°06'818.3
2017-Apr-24 10:30N 54°58' W 005°20'918.0
2017-Apr-24 10:00N 54°55' W 005°34'816.9
2017-Apr-24 09:30N 54°51' W 005°48'0 0.7
2017-Apr-24 09:00N 54°51' W 005°48'0 0.0
2017-Apr-24 08:30N 54°51' W 005°48'3 6.9
2017-Apr-24 08:01N 54°53' W 005°43'917.7
2017-Apr-24 07:30N 54°57' W 005°29'918.0
2017-Apr-24 07:00N 55°00' W 005°15'714.1
2017-Apr-24 06:31N 54°59' W 005°03'2 3.2
2017-Apr-24 06:00N 54°58' W 005°01'0 0.0
2017-Apr-24 05:30N 54°58' W 005°01'0 0.0
2017-Apr-24 05:00N 54°58' W 005°01'5 9.3
2017-Apr-24 04:29N 55°02' W 005°06'918.6
2017-Apr-24 04:01N 54°58' W 005°20'1020.3
2017-Apr-24 03:30N 54°54' W 005°37'714.3
2017-Apr-24 03:00N 54°51' W 005°48'0 0.1
2017-Apr-24 02:30N 54°51' W 005°48'0 0.0
2017-Apr-24 01:57N 54°51' W 005°48'0 0.0
2017-Apr-24 01:30N 54°51' W 005°48'0 0.0
2017-Apr-24 01:00N 54°51' W 005°48'0 0.0
2017-Apr-24 00:27N 54°51' W 005°48'0 0.0
2017-Apr-23 23:54N 54°51' W 005°48'4 8.8
2017-Apr-23 23:29N 54°53' W 005°43'918.0
2017-Apr-23 23:00N 54°57' W 005°29'917.3
2017-Apr-23 22:31N 55°01' W 005°16'714.0
2017-Apr-23 22:00N 54°59' W 005°03'2 4.4
2017-Apr-23 21:30N 54°58' W 005°01'0 0.0
2017-Apr-23 21:00N 54°58' W 005°01'5 9.5
2017-Apr-23 20:29N 55°02' W 005°06'817.5
2017-Apr-23 20:00N 54°58' W 005°20'918.3
2017-Apr-23 19:30N 54°54' W 005°34'916.8
2017-Apr-23 19:00N 54°51' W 005°48'0 0.3
2017-Apr-23 18:30N 54°51' W 005°48'0 0.0
2017-Apr-23 18:00N 54°51' W 005°48'0 0.0
2017-Apr-23 17:30N 54°51' W 005°48'612.1
2017-Apr-23 17:00N 54°54' W 005°39'918.1
2017-Apr-23 16:30N 54°58' W 005°25'918.7
2017-Apr-23 16:00N 55°02' W 005°10'612.4
2017-Apr-23 15:30N 54°58' W 005°01'0 0.0
2017-Apr-23 14:55N 54°58' W 005°01'5 5.2
2017-Apr-23 13:59N 55°02' W 005°06'917.8
2017-Apr-23 13:30N 54°58' W 005°20'918.0
2017-Apr-23 13:00N 54°55' W 005°34'816.6
2017-Apr-23 12:30N 54°51' W 005°48'0 0.8
2017-Apr-23 12:00N 54°51' W 005°48'0 0.0
2017-Apr-23 11:30N 54°51' W 005°48'611.9
2017-Apr-23 11:00N 54°54' W 005°39'816.4
2017-Apr-23 10:30N 54°58' W 005°26'816.6
2017-Apr-23 10:00N 55°01' W 005°13'714.1
2017-Apr-23 09:30N 54°58' W 005°02'1 1.2
2017-Apr-23 08:57N 54°58' W 005°01'0 0.0
2017-Apr-23 08:24N 54°58' W 005°01'5 9.7
2017-Apr-23 07:53N 55°01' W 005°07'719.5
2017-Apr-23 07:30N 54°59' W 005°18'1020.5
2017-Apr-23 07:00N 54°54' W 005°35'816.7
2017-Apr-23 06:31N 54°51' W 005°48'0 0.2
2017-Apr-23 06:00N 54°51' W 005°48'0 0.0
2017-Apr-23 05:30N 54°51' W 005°48'0 0.0
2017-Apr-23 05:00N 54°51' W 005°48'0 0.0
2017-Apr-23 04:30N 54°51' W 005°48'0 0.0
2017-Apr-23 04:00N 54°51' W 005°48'0 0.0
2017-Apr-23 03:29N 54°51' W 005°48'0 0.0
2017-Apr-23 03:00N 54°51' W 005°48'0 0.0
2017-Apr-23 02:30N 54°51' W 005°48'0 0.0
2017-Apr-23 02:00N 54°51' W 005°48'0 0.0
2017-Apr-23 01:30N 54°51' W 005°48'0 0.0
2017-Apr-23 01:00N 54°51' W 005°48'0 0.0
2017-Apr-23 00:30N 54°51' W 005°48'0 0.0
2017-Apr-23 00:00N 54°51' W 005°48'0 0.0
2017-Apr-22 23:30N 54°51' W 005°48'0 0.0
2017-Apr-22 23:00N 54°51' W 005°48'0 0.0
2017-Apr-22 22:30N 54°51' W 005°48'0 0.0
2017-Apr-22 22:00N 54°51' W 005°48'0 0.0
2017-Apr-22 21:30N 54°51' W 005°48'0 0.0
2017-Apr-22 21:00N 54°51' W 005°48'0 0.0
2017-Apr-22 20:30N 54°51' W 005°48'0 0.0
2017-Apr-22 20:00N 54°51' W 005°48'0 0.0
2017-Apr-22 19:30N 54°51' W 005°48'0 0.0
2017-Apr-22 19:00N 54°51' W 005°48'0 0.0
2017-Apr-22 18:30N 54°51' W 005°48'0 0.0
2017-Apr-22 18:00N 54°51' W 005°48'0 0.0
2017-Apr-22 17:30N 54°51' W 005°48'611.7
2017-Apr-22 17:01N 54°54' W 005°39'917.3
2017-Apr-22 16:31N 54°58' W 005°26'917.8
2017-Apr-22 16:00N 55°01' W 005°11'612.9
2017-Apr-22 15:30N 54°58' W 005°01'0 0.7
2017-Apr-22 15:00N 54°58' W 005°01'0 0.0
2017-Apr-22 14:30N 54°58' W 005°01'1111.5
2017-Apr-22 13:30N 54°58' W 005°21'918.3
2017-Apr-22 13:00N 54°54' W 005°36'815.6
2017-Apr-22 12:31N 54°51' W 005°48'0 0.2
2017-Apr-22 12:00N 54°51' W 005°48'0 0.0
2017-Apr-22 11:30N 54°51' W 005°48'612.1
2017-Apr-22 11:00N 54°54' W 005°39'817.0
2017-Apr-22 10:30N 54°58' W 005°26'917.3
2017-Apr-22 10:00N 55°01' W 005°12'713.9
2017-Apr-22 09:30N 54°58' W 005°01'0 0.3
2017-Apr-22 09:00N 54°58' W 005°01'0 0.0
2017-Apr-22 08:30N 54°58' W 005°01'510.2
2017-Apr-22 08:00N 55°02' W 005°07'917.2
2017-Apr-22 07:30N 54°58' W 005°20'917.6
2017-Apr-22 07:01N 54°55' W 005°34'816.6
2017-Apr-22 06:30N 54°51' W 005°48'0 0.6
2017-Apr-22 06:00N 54°51' W 005°48'0 0.0
2017-Apr-22 05:30N 54°51' W 005°48'0 0.0
2017-Apr-22 05:00N 54°51' W 005°48'4 8.7
2017-Apr-22 04:31N 54°53' W 005°42'1019.7
2017-Apr-22 04:01N 54°58' W 005°26'1020.1
2017-Apr-22 03:30N 55°02' W 005°10'612.8
2017-Apr-22 03:00N 54°58' W 005°01'0 0.4
2017-Apr-22 02:30N 54°58' W 005°01'0 0.0
2017-Apr-22 02:00N 54°58' W 005°01'0 0.0
2017-Apr-22 01:30N 54°58' W 005°01'0 0.0
2017-Apr-22 01:00N 54°58' W 005°01'5 9.6
2017-Apr-22 00:30N 55°02' W 005°06'917.8
2017-Apr-22 00:01N 54°58' W 005°20'918.1
2017-Apr-21 23:30N 54°54' W 005°34'816.5
2017-Apr-21 23:01N 54°51' W 005°48'0 0.7
2017-Apr-21 22:29N 54°51' W 005°48'0 0.0
2017-Apr-21 21:56N 54°51' W 005°48'0 0.0
2017-Apr-21 21:29N 54°51' W 005°48'0 0.0
2017-Apr-21 21:00N 54°51' W 005°48'5 9.5
2017-Apr-21 20:29N 54°54' W 005°41'918.3
2017-Apr-21 20:01N 54°57' W 005°27'917.8
2017-Apr-21 19:31N 55°01' W 005°13'713.5
2017-Apr-21 19:01N 54°58' W 005°02'1 1.7
2017-Apr-21 18:26N 54°58' W 005°01'0 0.0
2017-Apr-21 17:32N 54°58' W 005°01'0 0.2
2017-Apr-21 17:30N 54°58' W 005°01'510.0
2017-Apr-21 17:00N 55°01' W 005°06'816.7
2017-Apr-21 16:31N 54°58' W 005°20'917.3
2017-Apr-21 16:00N 54°55' W 005°34'917.5
2017-Apr-21 15:31N 54°51' W 005°48'0 1.0
2017-Apr-21 15:00N 54°51' W 005°48'0 0.0
2017-Apr-21 14:31N 54°51' W 005°48'1616.1
2017-Apr-21 13:30N 54°58' W 005°23'1019.4
2017-Apr-21 13:00N 55°02' W 005°07'510.7
2017-Apr-21 12:30N 54°58' W 005°01'0 0.0
2017-Apr-21 12:00N 54°58' W 005°01'0 0.0
2017-Apr-21 11:30N 54°58' W 005°01'510.3
2017-Apr-21 11:00N 55°02' W 005°07'917.7
2017-Apr-21 10:30N 54°58' W 005°21'917.8
2017-Apr-21 10:00N 54°54' W 005°35'815.9
2017-Apr-21 09:31N 54°51' W 005°48'0 0.2
2017-Apr-21 08:56N 54°51' W 005°48'0 0.0
2017-Apr-21 08:30N 54°51' W 005°48'713.2
2017-Apr-21 08:00N 54°54' W 005°38'918.2
2017-Apr-21 07:30N 54°58' W 005°24'917.8
2017-Apr-21 07:00N 55°02' W 005°10'612.5
2017-Apr-21 06:30N 54°58' W 005°01'0 0.0
2017-Apr-21 06:00N 54°58' W 005°01'0 0.0
2017-Apr-21 05:30N 54°58' W 005°01'0 0.1
2017-Apr-21 05:00N 54°58' W 005°01'612.6
2017-Apr-21 04:30N 55°01' W 005°10'917.8
2017-Apr-21 04:00N 54°57' W 005°23'918.8
2017-Apr-21 03:30N 54°53' W 005°38'612.0
2017-Apr-21 03:00N 54°51' W 005°48'0 0.0
2017-Apr-21 02:30N 54°51' W 005°48'0 0.0
2017-Apr-21 02:00N 54°51' W 005°48'0 0.0
2017-Apr-21 01:30N 54°51' W 005°48'0 0.0
2017-Apr-21 01:00N 54°51' W 005°48'611.6
2017-Apr-21 00:30N 54°54' W 005°39'1019.8
2017-Apr-21 00:01N 54°58' W 005°24'1019.6
2017-Apr-20 23:30N 55°02' W 005°08'611.5
2017-Apr-20 23:01N 54°58' W 005°01'0 0.0
2017-Apr-20 22:30N 54°58' W 005°01'0 0.0
2017-Apr-20 22:01N 54°58' W 005°01'0 0.0
2017-Apr-20 21:30N 54°58' W 005°01'0 0.8
2017-Apr-20 21:00N 54°58' W 005°01'713.2
2017-Apr-20 20:31N 55°01' W 005°12'918.2
2017-Apr-20 20:01N 54°57' W 005°26'918.2
2017-Apr-20 19:31N 54°53' W 005°40'5 9.9
2017-Apr-20 19:01N 54°51' W 005°48'0 0.0
2017-Apr-20 18:30N 54°51' W 005°48'0 0.0
2017-Apr-20 18:00N 54°51' W 005°48'0 0.0
2017-Apr-20 17:30N 54°51' W 005°48'611.6
2017-Apr-20 17:00N 54°54' W 005°39'918.2
2017-Apr-20 16:30N 54°58' W 005°25'918.1
2017-Apr-20 16:00N 55°01' W 005°11'713.1
2017-Apr-20 15:30N 54°58' W 005°01'0 0.0
2017-Apr-20 15:01N 54°58' W 005°01'  

Dump ship's entire track history